ELLX/LUX METAR and TAF weather

Enter ICAO airport designator
Station Type Date Time Source
ELLX METAR 2018/04/20 08:50 UTC NOAA

ELLX 200850Z 05003KT 360V100 CAVOK 22/06 Q1025 NOSIG


Station Type Date Time Source
ELLX Decoded METAR 2018/04/20 08:50 UTC NOAA

Luxembourg / Luxembourg, Luxembourg (ELLX) 49-37N 006-13E 379M
Apr 20, 2018 - 04:50 AM EDT / 2018.04.20 0850 UTC
Wind: from the NE (050 degrees) at 3 MPH (3 KT) (direction variable):0
Visibility: greater than 7 mile(s):0
Temperature: 71 F (22 C)
Dew Point: 42 F (6 C)
Relative Humidity: 35%
Pressure (altimeter): 30.27 in. Hg (1025 hPa)
ob: ELLX 200850Z 05003KT 360V100 CAVOK 22/06 Q1025 NOSIG
cycle: 9

Station Type Date Time Source
ELLX TAF 2018/04/20 06:27 UTC NOAA

TAF ELLX 200500Z 2006/2112 03008KT CAVOK


Example: see airport list